FFC weather

Peachtree City Falcon Field
Atlanta, Georgia, United States

Public forecast

Using degrees Fahrenheit for public forecast. Weather courtesy of forecast.io.

METAR (pilot weather report)

Retrieved 2019/04/21 09:53 UTC (48 minutes ago):

KFFC 210953Z AUTO 00000KT 10SM CLR 07/06 A3003 RMK AO2 SLP173 T00720056

TAF (pilot weather forecast)

Closest forecast is Hartsfield Jackson Atlanta International Airport, 18.3 nm (33.8 km) NNE. Retrieved 2019/04/21 06:34 UTC (4 hours ago):

TAF KATL 210532Z 2106/2212 00000KT P6SM BKN080 FM210800 27005KT P6SM SCT090 FM211100 29006KT P6SM SKC FM211400 31008G17KT P6SM SKC FM220000 30004KT P6SM SKC